Hovedside
METAR-TAF:

METAR-TAF

Lufthavner :

Tromsø, Norge

Tromsø lufthavn

breddegrad: 69-41N, lengdegrad: 018-55E, høyde over havet: 1 m

Gjeldene værobservasjon

Denne rapporten ble laget for 38 minutter siden, klokken 21:20 UTC
Vind 5 kt fra Nord-nordøst
Temperatur 11°C
Luftfuktighet 82%
Trykk 1008 hPa
Sikt 10 km eller mer
ingen skyer under 1500 m og ingen bygeskyer

METAR: ENTC 182120Z 03005KT CAVOK 11/08 Q1008 RMK WIND 2600FT VRB03KT

Tid: 23:58 (21:58 UTC)

Varsel

Varsel gyldig fra 18. klokken 18 UTC til 19. klokken 18 UTC
Vind 8 kt fra Nordøst
Sikt 10 km eller mer
Få skyer i en høyde av 4000 ft
Brutte skyer i en høyde av 8000 ft

TAF: ENTC 1818/1918 05008KT 9999 FEW040 BKN080

Værobservasjoner og værvarsel for over 4000 flyplasser (METAR- og TAF-rapporter).

Tilgjengelige stasjoner er representert av de røde og gule prikkene på kartet.

Hold musepekeren over prikken for å se navnet på stasjonen.

Klikk så for å se værobservasjoner og -varsler.

For å forandre kartet kan du klikke på den grønne knappen med svart kryss for å zoome inn, på den grønne knappen med strek for å zoome ut, eller på de grønne pilene for å se tilstøtende kart.


METAR-TAF: